createdAt,value
2018-06-25T00:00:19.583Z,95946.84
2018-06-25T00:02:49.295Z,95946.84
2018-06-25T00:05:19.381Z,95948.44
2018-06-25T00:07:49.675Z,95946.58
2018-06-25T00:10:19.773Z,95956.76
2018-06-25T00:12:49.389Z,95956.76
2018-06-25T00:15:19.480Z,95960.90
2018-06-25T00:17:49.742Z,95963.50
2018-06-25T00:20:19.826Z,95965.52
2018-06-25T00:22:50.045Z,95964.80
2018-06-25T00:25:20.152Z,95955.56
2018-06-25T00:27:50.237Z,95956.39
2018-06-25T00:30:20.402Z,95956.69
2018-06-25T00:32:50.416Z,95958.33
2018-06-25T00:35:20.500Z,95950.84
2018-06-25T00:37:50.560Z,95949.27
2018-06-25T00:40:20.651Z,95953.81
2018-06-25T00:42:50.777Z,95948.97
2018-06-25T00:45:20.834Z,95946.58
2018-06-25T00:47:50.908Z,95952.73
2018-06-25T00:50:20.968Z,95942.52
2018-06-25T00:52:50.986Z,95944.61
2018-06-25T00:55:21.168Z,95941.73
2018-06-25T00:57:51.523Z,95941.00
2018-06-25T01:00:21.581Z,95941.25
2018-06-25T01:02:51.607Z,95937.91
2018-06-25T01:05:21.720Z,95938.72
2018-06-25T01:07:51.816Z,95943.27
2018-06-25T01:10:21.836Z,95939.31
2018-06-25T01:12:51.871Z,95947.92
2018-06-25T01:15:21.971Z,95939.58
2018-06-25T01:17:52.075Z,95942.22
2018-06-25T01:20:22.184Z,95938.50
2018-06-25T01:22:51.797Z,95939.91
2018-06-25T01:25:21.831Z,95947.70
2018-06-25T01:27:51.919Z,95948.52
2018-06-25T01:30:21.972Z,95950.90
2018-06-25T01:32:51.564Z,95945.77
2018-06-25T01:35:21.643Z,95943.34
2018-06-25T01:37:51.664Z,95948.95
2018-06-25T01:40:21.972Z,95951.60
2018-06-25T01:42:51.724Z,95937.70
2018-06-25T01:45:21.785Z,95944.90
2018-06-25T01:47:51.769Z,95941.44
2018-06-25T01:50:22.303Z,95943.26
2018-06-25T01:52:52.811Z,95943.26
2018-06-25T01:55:22.918Z,95947.02
2018-06-25T01:57:52.951Z,95939.53
2018-06-25T02:00:23.012Z,95944.25
2018-06-25T02:02:53.108Z,95931.06
2018-06-25T02:05:23.196Z,95930.02
2018-06-25T02:07:53.449Z,95936.28
2018-06-25T02:10:23.623Z,95936.47
2018-06-25T02:12:53.305Z,95935.12
2018-06-25T02:15:23.402Z,95928.16
2018-06-25T02:17:53.465Z,95928.94
2018-06-25T02:20:23.693Z,95924.06
2018-06-25T02:22:53.905Z,95936.64
2018-06-25T02:25:23.949Z,95927.52
2018-06-25T02:27:54.024Z,95932.53
2018-06-25T02:30:24.286Z,95931.72
2018-06-25T02:32:54.342Z,95930.69
2018-06-25T02:35:24.387Z,95928.73
2018-06-25T02:37:54.402Z,95935.22
2018-06-25T02:40:24.448Z,95928.47
2018-06-25T02:42:54.473Z,95923.84
2018-06-25T02:45:24.532Z,95932.16
2018-06-25T02:47:54.242Z,95926.80
2018-06-25T02:50:24.291Z,95933.75
2018-06-25T02:52:54.369Z,95932.67
2018-06-25T02:55:24.442Z,95931.28
2018-06-25T02:57:54.518Z,95938.81
2018-06-25T03:00:24.572Z,95933.63
2018-06-25T03:02:54.672Z,95940.58
2018-06-25T03:05:24.700Z,95931.98
2018-06-25T03:07:54.852Z,95936.05
2018-06-25T03:10:24.883Z,95936.05
2018-06-25T03:12:54.937Z,95935.48
2018-06-25T03:15:24.922Z,95938.12
2018-06-25T03:17:54.996Z,95935.18
2018-06-25T03:20:25.080Z,95935.88
2018-06-25T03:22:55.167Z,95938.55
2018-06-25T03:25:25.200Z,95936.03
2018-06-25T03:27:55.249Z,95948.62
2018-06-25T03:30:25.288Z,95949.96
2018-06-25T03:32:55.440Z,95951.30
2018-06-25T03:35:26.277Z,95947.06
2018-06-25T03:37:56.336Z,95950.26
2018-06-25T03:40:26.431Z,95946.19
2018-06-25T03:42:56.526Z,95953.67
2018-06-25T03:45:26.520Z,95952.63
2018-06-25T03:47:56.595Z,95955.53
2018-06-25T03:50:26.693Z,95958.73
2018-06-25T03:52:57.377Z,95959.50
2018-06-25T03:55:27.465Z,95967.32
2018-06-25T03:57:57.683Z,95965.41
2018-06-25T04:00:27.757Z,95960.28
2018-06-25T04:02:57.945Z,95962.14
2018-06-25T04:05:27.629Z,95966.16
2018-06-25T04:07:57.721Z,95961.62
2018-06-25T04:10:27.845Z,95970.17
2018-06-25T04:12:58.509Z,95962.73
2018-06-25T04:15:28.716Z,95962.91
2018-06-25T04:17:58.856Z,95971.77
2018-06-25T04:20:28.941Z,95971.20
2018-06-25T04:22:59.002Z,95981.97
2018-06-25T04:25:29.453Z,95984.91
2018-06-25T04:27:59.519Z,95986.08
2018-06-25T04:30:29.551Z,95986.35
2018-06-25T04:32:59.642Z,95985.58
2018-06-25T04:35:29.675Z,95998.20
2018-06-25T04:37:59.740Z,95989.64
2018-06-25T04:40:29.705Z,95992.28
2018-06-25T04:42:59.812Z,95992.44
2018-06-25T04:45:29.444Z,95997.94
2018-06-25T04:47:59.570Z,96003.86
2018-06-25T04:50:29.810Z,95999.07
2018-06-25T04:52:59.902Z,96005.52
2018-06-25T04:55:30.032Z,96007.98
2018-06-25T04:58:00.124Z,95999.64
2018-06-25T05:00:30.171Z,96006.73
2018-06-25T05:03:00.264Z,96006.75
2018-06-25T05:05:30.373Z,96010.04
2018-06-25T05:08:01.055Z,96016.00
2018-06-25T05:10:31.145Z,96015.45
2018-06-25T05:13:01.167Z,96023.06
2018-06-25T05:15:31.230Z,96020.95
2018-06-25T05:18:01.478Z,96024.83
2018-06-25T05:20:31.583Z,96025.74
2018-06-25T05:23:01.655Z,96026.83
2018-06-25T05:25:31.934Z,96023.31
2018-06-25T05:28:02.080Z,96028.90
2018-06-25T05:30:32.179Z,96030.53
2018-06-25T05:33:02.194Z,96037.81
2018-06-25T05:35:32.309Z,96034.77
2018-06-25T05:38:02.342Z,96029.37
2018-06-25T05:40:32.431Z,96025.30
2018-06-25T05:43:02.465Z,96032.70
2018-06-25T05:45:32.610Z,96038.85
2018-06-25T05:48:02.706Z,96040.49
2018-06-25T05:50:32.424Z,96036.01
2018-06-25T05:53:02.470Z,96040.88
2018-06-25T05:55:32.827Z,96045.81
2018-06-25T05:58:03.233Z,96045.27
2018-06-25T06:00:33.326Z,96046.23
2018-06-25T06:03:03.411Z,96051.11
2018-06-25T06:05:33.573Z,96051.42
2018-06-25T06:08:03.879Z,96056.71
2018-06-25T06:10:33.911Z,95981.20
2018-06-25T06:13:03.521Z,96061.67
2018-06-25T06:15:33.261Z,96064.42
2018-06-25T06:18:03.299Z,96066.35
2018-06-25T06:20:33.381Z,96064.19
2018-06-25T06:23:03.041Z,96069.56
2018-06-25T06:25:33.137Z,96068.22
2018-06-25T06:28:03.171Z,96080.95
2018-06-25T06:30:33.276Z,96074.88
2018-06-25T06:33:03.427Z,96080.77
2018-06-25T06:35:33.536Z,96077.72
2018-06-25T06:38:03.788Z,96089.24
2018-06-25T06:40:33.905Z,96086.69
2018-06-25T06:43:03.989Z,96087.00
2018-06-25T06:45:33.674Z,96087.78
2018-06-25T06:48:04.001Z,96049.39
2018-06-25T06:50:33.857Z,96091.92
2018-06-25T06:53:03.935Z,96083.22
2018-06-25T06:55:34.074Z,96092.70
2018-06-25T06:58:04.218Z,96087.89
2018-06-25T07:00:33.912Z,96089.91
2018-06-25T07:03:04.226Z,96089.42
2018-06-25T07:05:34.344Z,96092.47
2018-06-25T07:08:04.526Z,96101.28
2018-06-25T07:10:34.590Z,96095.80
2018-06-25T07:13:04.616Z,96095.54
2018-06-25T07:15:34.748Z,96102.52
2018-06-25T07:18:04.793Z,96102.36
2018-06-25T07:20:35.996Z,96100.02
2018-06-25T07:23:06.177Z,96097.03
2018-06-25T07:25:36.264Z,96098.00
2018-06-25T07:28:07.833Z,96096.28
2018-06-25T07:30:37.462Z,96094.80
2018-06-25T07:33:07.878Z,96089.81
2018-06-25T07:35:37.959Z,96085.27
2018-06-25T07:38:08.117Z,96078.89
2018-06-25T07:40:38.208Z,96082.99
2018-06-25T07:43:08.335Z,96082.27
2018-06-25T07:45:38.377Z,96088.95
2018-06-25T07:48:08.465Z,96085.09
2018-06-25T07:50:38.551Z,96080.98
2018-06-25T07:53:08.630Z,96077.76
2018-06-25T07:55:38.765Z,96086.85
2018-06-25T07:58:08.903Z,96090.91
2018-06-25T08:00:38.965Z,96092.76
2018-06-25T08:03:09.092Z,96089.02
2018-06-25T08:05:39.172Z,96093.90
2018-06-25T08:08:08.984Z,96094.95
2018-06-25T08:10:39.039Z,96096.91
2018-06-25T08:13:09.139Z,96099.36
2018-06-25T08:15:39.166Z,96093.48
2018-06-25T08:18:09.322Z,96093.48
2018-06-25T08:20:39.483Z,96100.70
2018-06-25T08:23:09.601Z,96108.07
2018-06-25T08:25:39.858Z,96107.02
2018-06-25T08:28:09.960Z,96112.19
2018-06-25T08:30:40.039Z,96111.47
2018-06-25T08:33:10.165Z,96116.99
2018-06-25T08:35:40.235Z,96110.88
2018-06-25T08:38:10.323Z,96115.12
2018-06-25T08:40:40.339Z,96120.27
2018-06-25T08:43:10.474Z,96124.09
2018-06-25T08:45:40.481Z,96120.10
2018-06-25T08:48:10.571Z,96129.45
2018-06-25T08:50:40.614Z,96127.02
2018-06-25T08:53:10.748Z,96126.64
2018-06-25T08:55:40.762Z,96128.02
2018-06-25T08:58:10.871Z,96121.45
2018-06-25T09:00:40.913Z,96130.11
2018-06-25T09:03:11.326Z,96133.19
2018-06-25T09:05:41.523Z,96136.48
2018-06-25T09:08:11.749Z,96140.89
2018-06-25T09:10:41.819Z,96146.08
2018-06-25T09:13:11.952Z,96144.36
2018-06-25T09:15:42.212Z,96145.29
2018-06-25T09:18:12.444Z,96149.28
2018-06-25T09:20:42.435Z,96150.48
2018-06-25T09:23:12.535Z,96144.20
2018-06-25T09:25:42.565Z,96146.81
2018-06-25T09:28:12.660Z,96150.69
2018-06-25T09:30:42.700Z,96146.70
2018-06-25T09:33:13.137Z,96146.04
2018-06-25T09:35:43.221Z,96146.36
2018-06-25T09:38:13.291Z,96150.72
2018-06-25T09:40:43.353Z,96147.70
2018-06-25T09:43:13.697Z,96150.01
2018-06-25T09:45:44.165Z,96145.71
2018-06-25T09:48:14.337Z,96150.00
2018-06-25T09:50:44.347Z,96146.78
2018-06-25T09:53:14.403Z,96145.42
2018-06-25T09:55:44.499Z,96148.44
2018-06-25T09:58:14.769Z,96153.98
2018-06-25T10:00:49.903Z,96155.34
2018-06-25T10:03:20.022Z,96152.31
2018-06-25T10:05:50.259Z,96148.39
2018-06-25T10:08:20.365Z,96149.30
2018-06-25T10:10:50.408Z,96148.52
2018-06-25T10:13:20.460Z,96145.88
2018-06-25T10:15:50.516Z,96144.77
2018-06-25T10:18:20.672Z,96144.25
2018-06-25T10:20:50.757Z,96145.59
2018-06-25T10:23:20.827Z,96149.07
2018-06-25T10:25:50.887Z,96139.10
2018-06-25T10:28:20.887Z,96149.63
2018-06-25T10:30:51.080Z,96153.64
2018-06-25T10:33:21.083Z,96152.25
2018-06-25T10:35:51.126Z,96155.77
2018-06-25T10:38:21.171Z,96142.83
2018-06-25T10:40:50.839Z,96071.30
2018-06-25T10:43:20.882Z,96157.20
2018-06-25T10:45:50.998Z,96152.33
2018-06-25T10:48:21.092Z,96148.56
2018-06-25T10:50:51.252Z,96150.98
2018-06-25T10:53:21.287Z,96155.06
2018-06-25T10:55:51.362Z,96155.59
2018-06-25T10:58:21.350Z,96156.12
2018-06-25T11:00:51.419Z,96157.47
2018-06-25T11:03:21.732Z,96151.00
2018-06-25T11:05:51.970Z,96150.95
2018-06-25T11:08:22.154Z,96143.70
2018-06-25T11:10:51.902Z,96140.18
2018-06-25T11:13:22.024Z,96144.23
2018-06-25T11:15:52.149Z,96144.77
2018-06-25T11:18:22.211Z,96141.27
2018-06-25T11:20:52.353Z,96143.94
2018-06-25T11:23:22.505Z,96131.73
2018-06-25T11:25:52.600Z,96132.22
2018-06-25T11:28:22.527Z,96137.07
2018-06-25T11:30:52.217Z,96145.53
2018-06-25T11:33:22.841Z,96142.55
2018-06-25T11:35:52.889Z,96148.20
2018-06-25T11:38:22.919Z,96147.95
2018-06-25T11:40:53.060Z,96150.41
2018-06-25T11:43:23.123Z,96142.02
2018-06-25T11:45:53.240Z,96139.59
2018-06-25T11:48:23.394Z,96145.78
2018-06-25T11:50:53.092Z,96141.47
2018-06-25T11:53:23.207Z,96145.00
2018-06-25T11:55:53.458Z,96146.80
2018-06-25T11:58:23.138Z,96147.03
2018-06-25T12:00:53.262Z,96146.48
2018-06-25T12:03:23.396Z,96146.17
2018-06-25T12:05:53.555Z,96140.22
2018-06-25T12:08:23.595Z,96143.77
2018-06-25T12:10:53.719Z,96142.20
2018-06-25T12:13:24.012Z,96139.78
2018-06-25T12:15:53.742Z,96137.12
2018-06-25T12:18:23.821Z,96139.81
2018-06-25T12:20:53.926Z,96143.27
2018-06-25T12:23:24.114Z,96139.81
2018-06-25T12:25:54.557Z,96138.48
2018-06-25T12:28:24.614Z,96138.98
2018-06-25T12:30:54.756Z,96138.16
2018-06-25T12:33:24.827Z,96135.50
2018-06-25T12:35:55.222Z,96132.11
2018-06-25T12:38:24.855Z,96131.77
2018-06-25T12:40:55.009Z,96126.25
2018-06-25T12:43:25.061Z,96129.36
2018-06-25T12:45:55.126Z,96125.69
2018-06-25T12:48:25.321Z,96122.42
2018-06-25T12:50:55.360Z,96131.02
2018-06-25T12:53:25.439Z,96137.63
2018-06-25T12:55:55.525Z,96127.94
2018-06-25T12:58:25.572Z,96132.24
2018-06-25T13:00:55.725Z,96131.42
2018-06-25T13:03:25.763Z,96130.33
2018-06-25T13:05:55.433Z,96144.22
2018-06-25T13:08:25.463Z,96145.11
2018-06-25T13:10:56.261Z,96143.13
2018-06-25T13:13:26.271Z,96151.01
2018-06-25T13:15:56.341Z,96148.98
2018-06-25T13:18:26.447Z,96148.73
2018-06-25T13:20:56.497Z,96145.41
2018-06-25T13:23:26.621Z,96149.03
2018-06-25T13:25:56.759Z,96147.32
2018-06-25T13:28:26.769Z,96143.77
2018-06-25T13:30:56.862Z,96142.35
2018-06-25T13:33:26.854Z,96146.38
2018-06-25T13:35:56.985Z,96145.28
2018-06-25T13:38:27.119Z,96146.59
2018-06-25T13:40:57.439Z,96146.77
2018-06-25T13:43:27.507Z,96148.55
2018-06-25T13:45:57.177Z,96141.78
2018-06-25T13:48:27.230Z,96140.76
2018-06-25T13:50:57.308Z,96141.84
2018-06-25T13:53:27.383Z,96139.34
2018-06-25T13:55:57.415Z,96146.75
2018-06-25T13:58:27.489Z,96142.55
2018-06-25T14:00:57.496Z,96140.73
2018-06-25T14:03:27.554Z,96143.14
2018-06-25T14:05:57.578Z,96145.13
2018-06-25T14:08:27.610Z,96138.64
2018-06-25T14:10:57.807Z,96137.83
2018-06-25T14:13:27.868Z,96135.52
2018-06-25T14:15:57.980Z,96131.67
2018-06-25T14:18:28.183Z,96128.21
2018-06-25T14:20:58.294Z,96130.05
2018-06-25T14:23:28.638Z,96132.66
2018-06-25T14:26:03.825Z,96135.04
2018-06-25T14:28:35.580Z,96130.28
2018-06-25T14:31:10.606Z,96132.35
2018-06-25T14:33:43.259Z,96129.63
2018-06-25T14:36:13.804Z,96122.70
2018-06-25T14:38:44.405Z,96128.27
2018-06-25T14:41:14.676Z,96131.02
2018-06-25T14:43:44.637Z,96120.38
2018-06-25T14:46:14.999Z,96122.97
2018-06-25T14:48:45.444Z,96118.55
2018-06-25T14:51:15.904Z,96112.44
2018-06-25T14:53:46.532Z,96120.20
2018-06-25T14:56:17.006Z,96124.71
2018-06-25T14:58:47.437Z,96125.08
2018-06-25T15:01:17.768Z,96118.46
2018-06-25T15:03:48.281Z,96122.37
2018-06-25T15:06:18.807Z,96123.44
2018-06-25T15:08:49.453Z,96130.25
2018-06-25T15:11:19.807Z,96121.73
2018-06-25T15:13:49.867Z,96113.47
2018-06-25T15:16:20.142Z,96112.61
2018-06-25T15:18:50.563Z,96109.59
2018-06-25T15:21:20.838Z,96105.28
2018-06-25T15:23:51.239Z,96105.72
2018-06-25T15:26:21.612Z,96113.28
2018-06-25T15:28:52.086Z,96109.33
2018-06-25T15:31:22.448Z,96114.42
2018-06-25T15:33:52.992Z,96102.91
2018-06-25T15:36:23.483Z,96111.55
2018-06-25T15:38:53.542Z,96101.35
2018-06-25T15:41:23.466Z,96110.38
2018-06-25T15:43:54.467Z,96112.45
2018-06-25T15:46:24.915Z,96111.31
2018-06-25T15:48:55.715Z,96105.18
2018-06-25T15:51:26.191Z,96103.52
2018-06-25T15:53:56.822Z,96104.48
2018-06-25T15:56:27.095Z,96097.64
2018-06-25T15:58:57.521Z,96103.55
2018-06-25T16:01:27.596Z,96099.95
2018-06-25T16:03:57.920Z,96090.48
2018-06-25T16:06:28.431Z,96093.20
2018-06-25T16:08:58.833Z,96089.13
2018-06-25T16:11:29.155Z,96088.03
2018-06-25T16:13:59.570Z,96086.44
2018-06-25T16:16:29.638Z,96089.13
2018-06-25T16:18:59.742Z,96087.92
2018-06-25T16:21:30.162Z,96086.30
2018-06-25T16:24:00.551Z,96084.70
2018-06-25T16:26:30.874Z,96090.46
2018-06-25T16:29:01.294Z,96081.63
2018-06-25T16:31:31.359Z,96087.95
2018-06-25T16:34:01.395Z,96095.34
2018-06-25T16:36:31.961Z,96089.81
2018-06-25T16:39:10.142Z,96090.70
2018-06-25T16:41:40.810Z,96095.39
2018-06-25T16:44:11.713Z,96095.12
2018-06-25T16:46:44.536Z,96090.43
2018-06-25T16:49:15.042Z,96096.19
2018-06-25T16:51:46.410Z,96093.33
2018-06-25T16:54:16.705Z,96095.50
2018-06-25T16:56:47.341Z,96100.70
2018-06-25T16:59:17.442Z,96103.53
2018-06-25T17:01:47.670Z,96105.97
2018-06-25T17:04:17.780Z,96103.64
2018-06-25T17:06:48.129Z,96077.05
2018-06-25T17:09:18.366Z,96106.48
2018-06-25T17:11:48.682Z,96103.81
2018-06-25T17:14:19.307Z,96101.80
2018-06-25T17:16:49.715Z,96105.03
2018-06-25T17:19:21.031Z,96105.72
2018-06-25T17:21:52.308Z,96111.46
2018-06-25T17:24:22.440Z,96115.59
2018-06-25T17:26:52.504Z,96113.72
2018-06-25T17:29:23.049Z,96108.61
2018-06-25T17:31:54.614Z,96110.25
2018-06-25T17:34:24.830Z,96107.59
2018-06-25T17:36:54.911Z,96101.61
2018-06-25T17:39:25.144Z,96109.18
2018-06-25T17:41:55.288Z,96113.22
2018-06-25T17:44:25.384Z,96106.70
2018-06-25T17:46:55.641Z,96110.19
2018-06-25T17:49:25.707Z,96115.63
2018-06-25T17:51:55.785Z,96113.41
2018-06-25T17:54:25.918Z,96112.07
2018-06-25T17:56:55.986Z,96112.89
2018-06-25T17:59:26.022Z,96114.48
2018-06-25T18:01:56.052Z,96115.84
2018-06-25T18:04:26.164Z,96115.84
2018-06-25T18:06:56.300Z,96111.02
2018-06-25T18:09:26.411Z,96109.98
2018-06-25T18:11:56.481Z,96114.09
2018-06-25T18:14:26.535Z,96116.07
2018-06-25T18:16:56.651Z,96119.08
2018-06-25T18:19:26.707Z,96115.02
2018-06-25T18:21:56.818Z,96122.08
2018-06-25T18:24:27.198Z,96125.88
2018-06-25T18:26:57.335Z,96120.78
2018-06-25T18:29:27.430Z,96127.03
2018-06-25T18:31:57.545Z,96127.03
2018-06-25T18:34:27.605Z,96132.74
2018-06-25T18:36:57.871Z,96136.86
2018-06-25T18:39:27.515Z,96130.36
2018-06-25T18:41:57.846Z,96132.26
2018-06-25T18:44:28.011Z,96132.02
2018-06-25T18:46:58.134Z,96130.70
2018-06-25T18:49:29.095Z,96140.16
2018-06-25T18:51:59.283Z,96142.33
2018-06-25T18:54:29.373Z,96141.82
2018-06-25T18:56:59.532Z,96136.41
2018-06-25T18:59:29.855Z,96135.61
2018-06-25T19:02:00.091Z,96135.55
2018-06-25T19:04:30.162Z,96142.30
2018-06-25T19:07:00.309Z,96148.50
2018-06-25T19:09:30.453Z,96144.98
2018-06-25T19:12:00.643Z,96144.16
2018-06-25T19:14:30.738Z,96150.07
2018-06-25T19:17:00.473Z,96148.44
2018-06-25T19:19:30.602Z,96150.86
2018-06-25T19:22:00.774Z,96164.06
2018-06-25T19:24:30.949Z,96165.09
2018-06-25T19:27:01.178Z,96163.75
2018-06-25T19:29:31.319Z,96160.17
2018-06-25T19:32:01.492Z,96160.36
2018-06-25T19:34:31.162Z,96162.22
2018-06-25T19:37:01.426Z,96157.56
2018-06-25T19:39:31.535Z,96159.92
2018-06-25T19:42:01.641Z,96162.30
2018-06-25T19:44:31.742Z,96170.29
2018-06-25T19:47:01.889Z,96175.63
2018-06-25T19:49:32.011Z,96176.66
2018-06-25T19:52:02.116Z,96177.89
2018-06-25T19:54:32.314Z,96188.54
2018-06-25T19:57:02.432Z,96188.98
2018-06-25T19:59:32.078Z,96192.39
2018-06-25T20:02:02.407Z,96195.58
2018-06-25T20:04:32.536Z,96195.76
2018-06-25T20:07:02.762Z,96196.66
2018-06-25T20:09:32.873Z,96199.26
2018-06-25T20:12:02.996Z,96190.89
2018-06-25T20:14:33.130Z,96191.13
2018-06-25T20:17:03.478Z,96197.19
2018-06-25T20:19:33.622Z,96197.09
2018-06-25T20:22:04.047Z,96198.10
2018-06-25T20:24:34.156Z,96197.25
2018-06-25T20:27:04.539Z,96197.47
2018-06-25T20:29:34.731Z,96197.96
2018-06-25T20:32:05.375Z,96203.30
2018-06-25T20:34:35.059Z,96177.91
2018-06-25T20:37:05.322Z,96194.56
2018-06-25T20:39:35.509Z,96202.78
2018-06-25T20:42:05.772Z,96212.97
2018-06-25T20:44:36.097Z,96209.91
2018-06-25T20:47:06.297Z,96203.92
2018-06-25T20:49:36.465Z,96211.38
2018-06-25T20:52:06.604Z,96209.70
2018-06-25T20:54:36.911Z,96202.89
2018-06-25T20:57:07.119Z,96206.41
2018-06-25T20:59:36.828Z,96202.84
2018-06-25T21:02:07.022Z,96199.73
2018-06-25T21:04:37.441Z,96211.47
2018-06-25T21:07:07.605Z,96205.18
2018-06-25T21:09:37.278Z,96201.28
2018-06-25T21:12:07.421Z,96202.32
2018-06-25T21:14:37.514Z,96204.96
2018-06-25T21:17:07.609Z,96200.37
2018-06-25T21:19:37.720Z,96209.97
2018-06-25T21:22:07.426Z,96209.36
2018-06-25T21:24:37.540Z,96207.63
2018-06-25T21:27:07.782Z,96209.69
2018-06-25T21:29:37.895Z,96217.11
2018-06-25T21:32:08.258Z,96210.23
2018-06-25T21:34:38.400Z,96210.12
2018-06-25T21:37:08.476Z,96203.52
2018-06-25T21:39:38.593Z,96200.99
2018-06-25T21:42:08.667Z,96207.33
2018-06-25T21:44:38.851Z,96200.63
2018-06-25T21:47:08.936Z,96214.95
2018-06-25T21:49:39.066Z,96209.28
2018-06-25T21:52:09.183Z,96209.03
2018-06-25T21:54:39.308Z,96222.45
2018-06-25T21:57:09.415Z,96216.51
2018-06-25T21:59:39.551Z,96229.79
2018-06-25T22:02:09.712Z,96231.08
2018-06-25T22:04:39.831Z,96234.22
2018-06-25T22:07:09.947Z,96236.91
2018-06-25T22:09:40.078Z,96232.55
2018-06-25T22:12:09.703Z,96235.45
2018-06-25T22:14:39.745Z,96238.70
2018-06-25T22:17:09.832Z,96239.27
2018-06-25T22:19:39.990Z,96232.31
2018-06-25T22:22:10.105Z,96227.72
2018-06-25T22:24:40.157Z,96233.29
2018-06-25T22:27:10.232Z,96236.58
2018-06-25T22:29:40.374Z,96234.99
2018-06-25T22:32:10.499Z,96231.08
2018-06-25T22:34:40.603Z,96230.36
2018-06-25T22:37:10.725Z,96236.35
2018-06-25T22:39:40.865Z,96237.39
2018-06-25T22:42:10.939Z,96234.81
2018-06-25T22:44:41.025Z,96229.97
2018-06-25T22:47:11.130Z,96228.11
2018-06-25T22:49:41.283Z,96219.87
2018-06-25T22:52:11.356Z,96218.53
2018-06-25T22:54:41.619Z,96217.48
2018-06-25T22:57:11.648Z,96210.58
2018-06-25T22:59:41.869Z,96214.88
2018-06-25T23:02:12.039Z,96212.39
2018-06-25T23:04:41.772Z,96209.14
2018-06-25T23:07:11.923Z,96209.24
2018-06-25T23:09:42.015Z,96205.22
2018-06-25T23:12:12.120Z,96205.89
2018-06-25T23:14:41.806Z,96192.13
2018-06-25T23:17:11.904Z,96201.91
2018-06-25T23:19:41.979Z,96211.83
2018-06-25T23:22:12.067Z,96206.98
2018-06-25T23:24:42.179Z,96212.91
2018-06-25T23:27:12.281Z,96214.30
2018-06-25T23:29:42.491Z,96210.75
2018-06-25T23:32:13.112Z,96216.17
2018-06-25T23:34:43.188Z,96210.73
2018-06-25T23:37:13.315Z,96205.22
2018-06-25T23:39:43.358Z,96211.72
2018-06-25T23:42:13.428Z,96205.83
2018-06-25T23:44:43.502Z,96209.91
2018-06-25T23:47:13.604Z,96200.22
2018-06-25T23:49:43.674Z,96200.81
2018-06-25T23:52:13.786Z,96203.14
2018-06-25T23:54:43.549Z,96128.09
2018-06-25T23:57:13.652Z,96214.01
2018-06-25T23:59:43.835Z,96214.31
